Time;durP1;ratioP1;P1;durP2;ratioP2;P2;SDS_P1;SDS_P2;PMS_P1;PMS_P2;Temp;Humidity;BMP_temperature;BMP_pressure;BME280_temperature;BME280_humidity;BME280_pressure;Samples;Min_cycle;Max_cycle;Signal;HPM_P1;HPM_P2
2022/02/04 00:28:21;;;;;;;17.10;9.90;;;;;;;5.22;100.00;100378.75;107336;1284;61821;-76
2022/02/04 00:31:01;;;;;;;17.50;10.50;;;;;;;5.24;100.00;100373.71;107429;1282;75034;-77
2022/02/04 00:33:31;;;;;;;22.00;11.10;;;;;;;5.24;100.00;100373.35;107453;1282;71491;-76
2022/02/04 00:36:05;;;;;;;18.40;10.50;;;;;;;5.24;100.00;100366.80;107362;1284;74214;-76
2022/02/04 00:38:36;;;;;;;19.00;10.80;;;;;;;5.24;100.00;100359.77;107421;1283;62625;-77
2022/02/04 00:41:07;;;;;;;21.90;11.90;;;;;;;5.25;100.00;100364.84;107412;1284;60657;-77
2022/02/04 00:43:35;;;;;;;19.00;11.00;;;;;;;5.25;100.00;100368.49;107447;1282;76002;-76
2022/02/04 00:46:14;;;;;;;16.40;8.20;;;;;;;5.25;100.00;100366.42;107441;1282;72321;-77
2022/02/04 00:54:41;;;;;;;27.00;12.60;;;;;;;5.24;99.98;100381.17;107249;1282;59614;-76
2022/02/04 01:13:36;;;;;;;;;;;;;;;5.24;99.94;100379.63;107477;1282;72787;-76
2022/02/04 01:27:07;;;;;;;15.00;8.90;;;;;;;5.21;100.00;100383.27;107357;1282;71572;-76
2022/02/04 01:29:41;;;;;;;24.50;12.10;;;;;;;5.20;100.00;100388.25;107437;1282;72795;-76
2022/02/04 01:32:08;;;;;;;18.70;10.10;;;;;;;5.20;100.00;100387.73;107301;1285;62583;-77
2022/02/04 01:34:35;;;;;;;22.60;12.30;;;;;;;5.19;100.00;100392.69;107378;1283;60685;-77
2022/02/04 01:37:01;;;;;;;19.00;10.00;;;;;;;5.20;100.00;100392.16;107441;1282;59270;-77
2022/02/04 01:39:29;;;;;;;22.40;12.60;;;;;;;5.20;100.00;100384.70;107446;1282;69914;-77
2022/02/04 01:41:56;;;;;;;27.30;14.10;;;;;;;5.21;100.00;100380.80;107326;1284;74033;-76
2022/02/04 01:44:27;;;;;;;26.90;14.20;;;;;;;5.22;100.00;100381.94;107388;1284;59075;-77
2022/02/04 01:46:54;;;;;;;28.20;13.80;;;;;;;5.24;100.00;100376.15;107443;1282;60700;-77
2022/02/04 01:49:24;;;;;;;22.50;12.90;;;;;;;5.25;100.00;100379.70;107327;1284;76095;-76
2022/02/04 01:51:50;;;;;;;23.60;12.10;;;;;;;5.27;100.00;100380.91;107454;1282;72424;-77
2022/02/04 01:54:17;;;;;;;21.40;12.20;;;;;;;5.30;99.98;100381.36;107359;1284;72628;-77
2022/02/04 01:56:43;;;;;;;24.70;12.60;;;;;;;5.32;99.87;100377.80;107446;1282;62383;-77
2022/02/04 01:59:10;;;;;;;22.90;12.70;;;;;;;5.35;99.81;100372.28;107331;1284;61722;-76
2022/02/04 02:01:37;;;;;;;22.60;12.30;;;;;;;5.38;99.55;100370.40;107309;1284;76094;-77
2022/02/04 02:04:06;;;;;;;23.30;12.60;;;;;;;5.39;99.43;100365.04;107354;1284;72768;-77
2022/02/04 02:06:53;;;;;;;17.30;10.20;;;;;;;5.40;99.06;100368.23;107457;1282;71940;-77
2022/02/04 02:09:25;;;;;;;24.10;13.80;;;;;;;5.42;99.09;100366.51;107223;1284;61721;-77
2022/02/04 02:11:56;;;;;;;25.00;12.30;;;;;;;5.43;98.98;100367.16;107345;1284;60688;-77
2022/02/04 02:14:25;;;;;;;23.70;13.60;;;;;;;5.43;98.67;100366.44;107466;1284;76116;-77
2022/02/04 02:36:00;;;;;;;23.00;12.50;;;;;;;5.42;97.26;100367.21;107170;1282;62548;-78
2022/02/04 02:39:28;;;;;;;23.20;12.00;;;;;;;5.41;97.13;100368.66;107440;1284;60559;-78
2022/02/04 02:51:41;;;;;;;19.30;10.80;;;;;;;5.47;95.96;100370.39;107356;1284;60954;-79
2022/02/04 02:54:31;;;;;;;20.70;11.00;;;;;;;5.50;95.52;100366.96;107389;1284;76019;-78
2022/02/04 02:59:30;;;;;;;19.70;10.60;;;;;;;5.54;94.96;100361.34;107428;1282;59126;-77
2022/02/04 03:01:57;;;;;;;17.00;8.70;;;;;;;5.57;94.79;100365.39;107422;1282;62250;-77
2022/02/04 03:04:23;;;;;;;19.70;10.60;;;;;;;5.58;94.29;100358.95;107449;1282;60002;-77
2022/02/04 03:06:50;;;;;;;15.90;8.60;;;;;;;5.61;94.13;100355.02;107435;1283;59004;-77
2022/02/04 03:09:17;;;;;;;20.10;9.70;;;;;;;5.62;94.02;100351.55;107169;1285;72498;-77
2022/02/04 03:11:43;;;;;;;20.90;10.60;;;;;;;5.62;93.91;100351.52;107353;1284;72910;-77
2022/02/04 03:14:10;;;;;;;14.30;8.70;;;;;;;5.64;93.78;100349.83;107340;1284;62415;-78
2022/02/04 03:16:37;;;;;;;17.90;10.10;;;;;;;5.63;94.03;100346.96;107450;1282;59728;-77
2022/02/04 03:19:06;;;;;;;19.00;10.90;;;;;;;5.61;94.28;100348.90;107454;1282;76095;-77
2022/02/04 03:21:42;;;;;;;23.00;11.20;;;;;;;5.60;94.29;100346.52;107293;1285;71406;-77
2022/02/04 03:24:13;;;;;;;18.10;10.50;;;;;;;5.59;94.60;100343.79;107308;1284;72939;-77
2022/02/04 03:26:57;;;;;;;23.30;10.90;;;;;;;5.59;94.53;100343.24;107315;1284;63367;-79
2022/02/04 03:29:31;;;;;;;19.30;10.70;;;;;;;5.59;94.57;100344.98;107458;1282;60545;-78
2022/02/04 03:32:04;;;;;;;18.40;11.10;;;;;;;5.59;94.69;100338.73;107448;1282;75260;-77
2022/02/04 03:34:31;;;;;;;15.50;8.50;;;;;;;5.57;94.73;100340.10;107464;1282;71899;-78
2022/02/04 03:36:58;;;;;;;21.90;11.70;;;;;;;5.57;94.77;100339.05;107361;1284;73994;-78
2022/02/04 03:39:24;;;;;;;19.60;11.10;;;;;;;5.58;94.83;100337.96;107435;1282;59535;-77
2022/02/04 03:41:50;;;;;;;20.50;11.00;;;;;;;5.57;94.92;100331.52;107363;1283;59665;-77
2022/02/04 03:44:17;;;;;;;21.90;10.40;;;;;;;5.57;95.02;100329.13;107475;1282;59129;-77
2022/02/04 03:46:44;;;;;;;19.70;11.50;;;;;;;5.57;95.28;100331.20;107434;1282;70413;-77
2022/02/04 03:49:11;;;;;;;21.90;10.00;;;;;;;5.56;95.17;100333.89;107440;1283;74123;-78
2022/02/04 03:51:37;;;;;;;18.10;10.20;;;;;;;5.57;95.15;100329.98;107354;1284;62478;-78
2022/02/04 03:54:04;;;;;;;18.50;10.80;;;;;;;5.57;95.39;100328.73;107419;1283;59389;-78
2022/02/04 03:56:30;;;;;;;20.30;11.50;;;;;;;5.56;95.23;100331.42;107460;1282;59213;-77
2022/02/04 03:58:57;;;;;;;16.40;7.80;;;;;;;5.55;95.34;100330.23;107476;1282;59389;-77
2022/02/04 04:01:23;;;;;;;22.90;11.60;;;;;;;5.53;95.48;100325.65;107461;1282;59344;-78
2022/02/04 04:03:49;;;;;;;20.30;10.80;;;;;;;5.53;95.49;100328.05;107482;1282;58503;-78
2022/02/04 04:06:17;;;;;;;22.30;11.80;;;;;;;5.54;95.52;100324.08;107378;1283;58562;-78
2022/02/04 04:08:44;;;;;;;19.60;10.80;;;;;;;5.56;95.40;100326.08;107368;1283;74018;-78
2022/02/04 04:11:13;;;;;;;18.70;11.10;;;;;;;5.56;95.32;100324.62;107320;1284;71397;-78
2022/02/04 04:13:39;;;;;;;22.90;12.60;;;;;;;5.57;95.27;100326.11;107429;1284;73198;-79
2022/02/04 04:16:06;;;;;;;18.70;10.60;;;;;;;5.57;95.20;100319.64;107370;1284;60979;-78
2022/02/04 04:18:32;;;;;;;22.60;12.10;;;;;;;5.57;95.49;100319.86;107454;1284;60668;-78
2022/02/04 04:21:01;;;;;;;19.70;10.80;;;;;;;5.56;95.41;100320.44;107358;1283;76075;-77
2022/02/04 04:23:28;;;;;;;21.30;12.00;;;;;;;5.56;95.47;100317.75;107385;1284;71422;-78
2022/02/04 04:25:55;;;;;;;25.60;12.80;;;;;;;5.56;95.28;100317.23;107382;1284;72911;-78
2022/02/04 04:28:22;;;;;;;21.20;12.40;;;;;;;5.55;95.36;100319.95;107367;1284;62275;-78
2022/02/04 04:30:48;;;;;;;20.60;11.50;;;;;;;5.55;95.76;100314.05;107360;1284;61595;-77
2022/02/04 04:33:15;;;;;;;20.60;11.50;;;;;;;5.56;95.63;100317.95;107579;1283;75949;-77
2022/02/04 04:35:41;;;;;;;24.70;10.60;;;;;;;5.57;95.73;100314.86;107492;1282;71372;-78
2022/02/04 04:41:05;;;;;;;22.00;12.10;;;;;;;5.58;95.75;100320.60;107420;1283;59486;-78
2022/02/04 04:43:50;;;;;;;18.00;10.50;;;;;;;5.59;95.49;100311.02;107486;1284;61604;-77
2022/02/04 04:47:03;;;;;;;25.00;12.90;;;;;;;5.57;95.52;100312.05;107451;1284;74643;-77
2022/02/04 05:30:44;;;;;;;23.50;12.30;;;;;;;5.67;95.46;100268.98;107532;1283;71423;-77
2022/02/04 05:33:11;;;;;;;18.90;9.80;;;;;;;5.67;95.40;100269.16;107320;1284;73030;-77
2022/02/04 05:35:37;;;;;;;20.40;11.00;;;;;;;5.68;95.26;100269.77;107316;1284;61362;-78
2022/02/04 05:38:05;;;;;;;21.60;11.10;;;;;;;5.68;95.15;100264.10;107477;1284;58984;-78
2022/02/04 05:40:39;;;;;;;18.00;9.30;;;;;;;5.69;95.09;100261.77;107531;1284;74994;-77
2022/02/04 05:43:14;;;;;;;20.30;11.40;;;;;;;5.70;95.02;100262.17;107547;1283;72182;-78
2022/02/04 05:45:41;;;;;;;;;;;;;;;5.69;95.05;100262.75;107610;1284;73509;-78
2022/02/04 05:48:08;;;;;;;22.80;10.50;;;;;;;5.69;94.98;100257.16;107441;1283;61511;-78
2022/02/04 05:50:48;;;;;;;21.50;11.50;;;;;;;5.69;94.97;100253.30;107548;1283;60181;-77
2022/02/04 05:53:22;;;;;;;18.50;10.00;;;;;;;5.69;95.04;100249.60;107572;1284;75025;-78
2022/02/04 05:56:09;;;;;;;22.10;11.10;;;;;;;5.70;94.99;100243.78;107597;1284;72377;-78
2022/02/04 06:01:32;;;;;;;20.10;10.00;;;;;;;5.70;94.87;100241.78;107645;1283;61479;-80
2022/02/04 06:09:11;;;;;;;20.20;10.80;;;;;;;5.77;94.34;100239.78;107693;1282;71226;-82
2022/02/04 06:11:58;;;;;;;16.60;9.90;;;;;;;5.78;94.00;100230.38;107648;1283;74252;-81
2022/02/04 06:22:30;;;;;;;18.00;9.60;;;;;;;5.81;93.72;100227.80;107410;1284;72757;-81
2022/02/04 06:24:57;;;;;;;15.60;9.30;;;;;;;5.82;93.79;100229.64;107606;1283;73596;-81
2022/02/04 06:27:25;;;;;;;12.40;7.00;;;;;;;5.81;93.63;100221.48;107648;1282;62430;-81
2022/02/04 06:29:54;;;;;;;15.60;8.40;;;;;;;5.81;93.28;100224.58;107606;1283;60716;-83
2022/02/04 06:32:22;;;;;;;15.80;8.40;;;;;;;5.81;93.50;100224.54;107254;1284;76619;-80
2022/02/04 06:34:51;;;;;;;14.40;8.00;;;;;;;5.83;93.29;100231.11;107572;1283;72409;-81
2022/02/04 06:37:18;;;;;;;14.50;7.90;;;;;;;5.83;93.28;100228.27;107710;1282;73203;-80
2022/02/04 06:39:45;;;;;;;13.10;7.10;;;;;;;5.82;93.09;100226.04;107704;1282;61483;-80
2022/02/04 06:42:20;;;;;;;16.20;8.30;;;;;;;5.82;93.07;100221.88;107729;1282;60624;-80
2022/02/04 06:44:48;;;;;;;13.70;8.00;;;;;;;5.83;93.30;100227.61;107641;1282;76464;-81
2022/02/04 06:49:45;;;;;;;14.00;8.30;;;;;;;5.81;93.13;100225.77;107457;1272;73222;-80
2022/02/04 06:52:13;;;;;;;14.90;8.00;;;;;;;5.82;93.22;100222.38;107840;1280;61570;-80
2022/02/04 06:54:40;;;;;;;13.90;7.30;;;;;;;5.82;93.20;100222.05;107687;1282;60559;-80
2022/02/04 06:57:07;;;;;;;14.20;7.90;;;;;;;5.80;93.44;100226.08;107690;1282;75018;-81
2022/02/04 06:59:35;;;;;;;17.50;7.50;;;;;;;5.81;93.48;100228.33;107787;1281;71346;-80
2022/02/04 07:02:02;;;;;;;15.50;8.50;;;;;;;5.80;93.48;100230.98;107855;1281;73438;-80
2022/02/04 07:04:32;;;;;;;15.00;8.00;;;;;;;5.81;93.65;100233.04;107778;1281;61262;-81
2022/02/04 07:07:00;;;;;;;12.30;7.90;;;;;;;5.80;93.89;100231.02;107849;1281;60725;-80
2022/02/04 07:12:20;;;;;;;14.70;7.70;;;;;;;5.78;93.94;100228.96;107589;1281;71767;-80
2022/02/04 07:19:49;;;;;;;15.20;8.50;;;;;;;5.78;93.91;100210.35;107739;1281;60459;-79
2022/02/04 07:22:18;;;;;;;13.80;8.00;;;;;;;5.76;94.44;100220.42;107718;1282;74651;-79
2022/02/04 07:24:48;;;;;;;17.70;8.80;;;;;;;5.75;94.42;100221.38;107816;1281;72435;-79
2022/02/04 07:27:14;;;;;;;16.20;8.10;;;;;;;5.74;94.58;100230.03;107393;1281;456879;-79
2022/02/04 07:29:43;;;;;;;13.70;7.20;;;;;;;5.73;94.76;100223.20;107790;1281;58472;-79
2022/02/04 07:32:19;;;;;;;12.30;7.70;;;;;;;5.73;94.94;100233.48;107624;1282;60332;-80
2022/02/04 07:42:45;;;;;;;13.20;6.10;;;;;;;5.71;95.13;100236.39;107772;1281;62727;-81
2022/02/04 07:45:12;;;;;;;14.20;8.20;;;;;;;5.73;95.28;100232.02;107699;1282;59077;-81
2022/02/04 07:47:38;;;;;;;14.40;7.60;;;;;;;5.74;95.10;100231.77;107738;1281;74734;-79
2022/02/04 07:50:06;;;;;;;13.90;7.20;;;;;;;5.76;94.98;100229.70;107796;1282;58994;-79
2022/02/04 07:52:34;;;;;;;12.80;6.30;;;;;;;5.77;94.82;100230.64;107787;1281;73151;-82
2022/02/04 07:55:01;;;;;;;10.60;6.50;;;;;;;5.78;94.49;100223.80;107545;1284;61775;-80
2022/02/04 07:57:27;;;;;;;11.90;7.00;;;;;;;5.80;94.42;100226.67;107823;1282;60628;-79
2022/02/04 08:00:00;;;;;;;9.60;6.00;;;;;;;5.82;94.51;100220.83;107754;1282;76071;-80
2022/02/04 08:02:27;;;;;;;11.70;6.90;;;;;;;5.82;94.42;100218.67;107752;1282;71405;-80
2022/02/04 08:04:58;;;;;;;10.60;6.70;;;;;;;5.84;94.16;100221.10;107810;1282;72900;-80
2022/02/04 08:07:29;;;;;;;10.60;6.30;;;;;;;5.88;94.35;100218.40;107687;1282;61425;-80
2022/02/04 08:10:22;;;;;;;10.30;6.10;;;;;;;5.91;93.95;100221.23;107708;1284;61001;-80
2022/02/04 08:15:39;;;;;;;8.80;4.60;;;;;;;5.96;93.62;100224.49;107705;1284;71394;-79
2022/02/04 08:18:28;;;;;;;9.10;5.30;;;;;;;5.99;93.77;100220.48;107705;1283;73312;-80
2022/02/04 08:23:59;;;;;;;8.30;5.70;;;;;;;6.00;93.13;100219.02;107649;1282;60877;-79
2022/02/04 08:36:55;;;;;;;7.30;4.60;;;;;;;6.09;92.35;100206.63;107717;1282;60607;-78
2022/02/04 08:57:40;;;;;;;10.20;5.90;;;;;;;6.22;93.19;100205.49;107625;1282;74297;-80
2022/02/04 09:01:16;;;;;;;9.60;5.10;;;;;;;6.23;93.59;100200.16;107688;1282;62640;-79
2022/02/04 09:03:14;;;;;;;7.50;4.90;;;;;;;6.23;93.74;100195.63;107533;1283;62090;-79
2022/02/04 09:05:53;;;;;;;9.00;4.90;;;;;;;6.22;94.09;100189.52;107648;1282;74925;-80
2022/02/04 09:08:25;;;;;;;6.10;3.70;;;;;;;6.22;94.25;100189.16;107544;1282;71546;-80
2022/02/04 09:10:53;;;;;;;10.70;6.20;;;;;;;6.22;94.43;100186.95;107713;1282;73266;-79
2022/02/04 09:19:00;;;;;;;9.80;5.30;;;;;;;6.24;94.01;100175.34;107729;1282;75021;-80
2022/02/04 09:24:13;;;;;;;8.40;5.30;;;;;;;6.27;93.71;100167.98;107623;1281;74280;-81
2022/02/04 09:26:41;;;;;;;6.80;4.50;;;;;;;6.27;93.26;100173.91;107631;1282;63041;-79
2022/02/04 09:29:07;;;;;;;8.10;5.10;;;;;;;6.30;93.16;100168.20;107630;1282;60642;-79
2022/02/04 09:31:36;;;;;;;7.60;4.50;;;;;;;6.32;92.78;100164.63;107623;1282;75577;-79
2022/02/04 09:34:04;;;;;;;8.00;4.30;;;;;;;6.36;92.63;100157.91;107534;1282;71631;-80
2022/02/04 09:36:32;;;;;;;7.10;4.60;;;;;;;6.40;92.51;100153.98;107648;1282;73209;-80
2022/02/04 09:39:01;;;;;;;7.40;4.20;;;;;;;6.43;92.52;100153.42;107689;1282;62489;-79
2022/02/04 09:41:28;;;;;;;9.10;4.60;;;;;;;6.46;92.08;100155.94;107537;1271;61607;-79
2022/02/04 09:43:54;;;;;;;10.40;5.20;;;;;;;6.46;91.64;100158.05;107972;1281;76020;-80
2022/02/04 09:46:21;;;;;;;6.90;4.90;;;;;;;6.47;91.65;100158.07;107639;1281;71431;-79
2022/02/04 09:48:54;;;;;;;7.80;4.20;;;;;;;6.49;91.49;100151.20;107927;1281;73008;-79
2022/02/04 09:51:28;;;;;;;7.10;3.80;;;;;;;6.54;91.65;100150.23;107742;1282;61650;-79
2022/02/04 10:08:02;;;;;;;;;;;;;;;6.69;90.99;100129.11;107814;1281;60562;-79
2022/02/04 10:13:32;;;;;;;4.00;2.50;;;;;;;6.82;90.33;100122.78;107784;1281;71374;-80
2022/02/04 10:16:34;;;;;;;5.80;3.50;;;;;;;6.91;90.13;100126.16;107635;1281;74341;-80
2022/02/04 10:19:14;;;;;;;4.60;2.60;;;;;;;7.01;89.80;100120.80;107779;1281;65292;-79
2022/02/04 10:21:40;;;;;;;5.90;2.90;;;;;;;7.05;89.07;100121.75;107811;1281;60580;-80
2022/02/04 10:24:09;;;;;;;4.20;2.80;;;;;;;7.08;88.86;100122.57;107809;1281;74971;-80
2022/02/04 10:26:36;;;;;;;4.50;2.80;;;;;;;7.13;88.60;100119.80;107824;1281;71037;-80
2022/02/04 10:29:03;;;;;;;6.30;3.00;;;;;;;7.20;88.49;100117.44;107800;1281;59247;-79
2022/02/04 10:31:30;;;;;;;5.00;2.90;;;;;;;7.24;88.41;100111.71;107829;1281;63787;-79
2022/02/04 10:34:11;;;;;;;4.10;2.70;;;;;;;7.28;87.91;100110.21;107685;1282;60343;-79
2022/02/04 10:42:47;;;;;;;7.20;3.10;;;;;;;7.34;87.23;100093.37;107935;1280;73952;-80
2022/02/04 10:48:12;;;;;;;5.80;3.40;;;;;;;7.29;87.64;100082.70;107631;1283;61578;-79
2022/02/04 11:33:20;;;;;;;4.10;2.50;;;;;;;8.01;82.97;100000.95;107909;1281;76337;-79
2022/02/04 11:35:34;;;;;;;4.00;2.10;;;;;;;8.05;83.55;100001.58;107216;1287;71408;-79
2022/02/04 11:47:52;;;;;;;6.20;2.50;;;;;;;8.17;82.31;99983.80;107903;1280;60739;-79
2022/02/04 11:55:11;;;;;;;8.40;2.60;;;;;;;8.19;81.29;99954.89;107643;1281;63261;-80
2022/02/04 11:58:03;;;;;;;6.00;2.50;;;;;;;8.14;81.32;99946.73;107656;1282;61695;-80
2022/02/04 12:00:35;;;;;;;5.60;2.30;;;;;;;8.19;81.76;99942.90;107733;1281;76154;-78
2022/02/04 12:03:23;;;;;;;3.60;2.10;;;;;;;8.23;81.41;99936.98;107492;1284;71844;-78
2022/02/04 12:05:50;;;;;;;3.70;1.80;;;;;;;8.25;81.55;99936.41;107448;1283;73960;-78
2022/02/04 12:08:19;;;;;;;5.90;2.60;;;;;;;8.18;81.27;99931.14;107369;1284;62484;-78
2022/02/04 12:10:52;;;;;;;3.50;2.20;;;;;;;8.10;81.96;99934.79;107627;1282;60561;-78
2022/02/04 12:13:20;;;;;;;4.10;2.40;;;;;;;8.02;82.87;99934.20;107566;1282;75071;-79
2022/02/04 12:16:07;;;;;;;2.10;1.40;;;;;;;7.93;82.82;99931.74;107558;1283;71334;-79
2022/02/04 12:18:34;;;;;;;3.60;1.60;;;;;;;7.87;83.54;99931.98;107688;1280;72636;-79
2022/02/04 12:21:03;;;;;;;6.40;2.30;;;;;;;7.80;84.01;99937.19;107554;1282;62308;-81
2022/02/04 12:23:30;;;;;;;4.50;2.20;;;;;;;7.75;84.26;99933.15;107471;1282;60625;-79
2022/02/04 12:26:08;;;;;;;3.10;1.80;;;;;;;7.79;84.58;99933.79;107436;1284;75077;-79
2022/02/04 12:28:35;;;;;;;2.80;1.70;;;;;;;7.88;84.65;99919.73;107615;1282;72826;-79
2022/02/04 12:31:09;;;;;;;3.70;1.80;;;;;;;8.01;83.63;99910.55;107590;1282;73028;-79
2022/02/04 12:33:45;;;;;;;4.70;1.60;;;;;;;8.16;83.43;99909.77;107733;1281;62270;-79
2022/02/04 12:36:24;;;;;;;1.80;1.20;;;;;;;8.30;82.73;99892.08;107505;1283;61722;-79
2022/02/04 12:38:57;;;;;;;2.50;1.30;;;;;;;8.42;82.07;99877.71;107865;1282;75700;-80
2022/02/04 12:41:26;;;;;;;1.40;0.90;;;;;;;8.49;81.14;99869.29;107521;1282;72945;-80
2022/02/04 12:43:56;;;;;;;1.80;1.10;;;;;;;8.53;81.14;99869.52;107624;1282;73215;-79
2022/02/04 12:46:24;;;;;;;2.80;1.10;;;;;;;8.66;80.37;99860.96;107546;1283;62211;-80
2022/02/04 12:49:05;;;;;;;3.70;0.90;;;;;;;9.30;77.93;99865.09;107557;1284;60620;-80
2022/02/04 12:51:45;;;;;;;2.50;1.00;;;;;;;9.80;74.89;99853.05;107663;1282;75100;-80
2022/02/04 12:54:13;;;;;;;1.40;0.80;;;;;;;9.80;74.03;99846.52;107714;1282;71429;-80
2022/02/04 12:56:43;;;;;;;1.40;0.70;;;;;;;9.62;74.89;99848.40;107596;1282;72946;-80
2022/02/04 13:07:38;;;;;;;2.10;0.90;;;;;;;8.88;78.02;99843.81;107602;1282;71875;-79
2022/02/04 13:10:24;;;;;;;2.50;0.90;;;;;;;8.73;78.11;99832.38;107594;1282;73024;-80
2022/02/04 13:12:58;;;;;;;1.50;1.00;;;;;;;8.61;78.84;99827.88;107493;1282;62304;-79
2022/02/04 13:15:28;;;;;;;2.50;0.70;;;;;;;8.52;79.21;99829.44;107629;1282;60743;-79
2022/02/04 13:17:58;;;;;;;1.40;0.70;;;;;;;8.43;80.22;99826.70;107513;1283;74804;-79
2022/02/04 13:20:26;;;;;;;2.70;1.00;;;;;;;8.34;80.86;99824.19;107631;1282;72378;-79
2022/02/04 13:22:56;;;;;;;1.80;0.90;;;;;;;8.25;81.79;99826.80;107558;1282;72918;-79
2022/02/04 13:25:25;;;;;;;2.50;1.20;;;;;;;8.16;82.45;99817.52;107597;1281;62258;-79
2022/02/04 13:28:04;;;;;;;1.70;0.70;;;;;;;8.08;82.67;99816.75;107585;1282;61722;-77
2022/02/04 13:30:35;;;;;;;1.90;1.00;;;;;;;8.03;82.32;99810.08;107554;1282;76332;-79
2022/02/04 13:33:13;;;;;;;1.40;0.80;;;;;;;8.01;82.66;99805.44;107531;1283;72338;-79
2022/02/04 13:35:42;;;;;;;2.10;1.10;;;;;;;8.00;82.18;99797.53;107538;1282;74116;-78
2022/02/04 13:38:51;;;;;;;0.80;0.60;;;;;;;8.01;81.50;99789.09;107451;1283;62154;-78
2022/02/04 13:44:25;;;;;;;0.70;0.50;;;;;;;8.01;80.96;99779.95;107569;1282;76287;-79
2022/02/04 13:47:06;;;;;;;1.70;0.50;;;;;;;8.01;80.53;99777.48;107422;1282;71398;-79
2022/02/04 13:49:56;;;;;;;0.70;0.40;;;;;;;8.03;79.82;99776.38;107517;1282;73152;-79
2022/02/04 13:52:53;;;;;;;1.00;0.40;;;;;;;8.04;79.64;99768.65;107535;1282;63454;-79
2022/02/04 13:55:33;;;;;;;0.80;0.40;;;;;;;8.06;79.05;99772.66;107611;1282;60633;-79
2022/02/04 14:01:33;;;;;;;0.70;0.40;;;;;;;8.17;78.68;99770.18;107516;1284;72392;-79
2022/02/04 14:03:46;;;;;;;1.30;0.50;;;;;;;8.24;78.11;99763.89;107305;1284;73009;-79
2022/02/04 14:06:23;;;;;;;0.60;0.50;;;;;;;8.30;77.86;99764.02;107524;1284;62415;-79
2022/02/04 14:08:57;;;;;;;0.60;0.30;;;;;;;8.33;77.99;99758.03;107534;1284;62043;-78
2022/02/04 14:11:34;;;;;;;0.80;0.40;;;;;;;8.33;78.06;99749.71;107503;1283;75531;-78
2022/02/04 14:14:23;;;;;;;0.70;0.40;;;;;;;8.34;77.88;99741.17;107524;1282;71490;-78
2022/02/04 14:16:55;;;;;;;1.10;0.40;;;;;;;8.34;77.54;99736.19;107564;1282;73065;-78
2022/02/04 14:19:28;;;;;;;2.40;0.50;;;;;;;8.32;77.46;99743.31;107369;1284;61999;-78
2022/02/04 14:21:57;;;;;;;1.30;0.60;;;;;;;8.31;77.78;99741.88;107347;1283;61726;-79
2022/02/04 14:24:23;;;;;;;0.60;0.30;;;;;;;8.28;77.15;99742.65;107577;1283;75991;-78
2022/02/04 14:26:52;;;;;;;0.90;0.40;;;;;;;8.27;77.68;99731.79;107603;1282;72617;-79
2022/02/04 14:32:01;;;;;;;1.70;0.70;;;;;;;8.25;78.53;99729.02;107541;1283;62270;-80
2022/02/04 14:34:52;;;;;;;2.40;0.70;;;;;;;8.24;77.65;99714.17;107549;1284;60346;-79
2022/02/04 14:53:49;;;;;;;1.10;0.60;;;;;;;8.18;76.04;99695.93;107606;1282;59401;-79
2022/02/04 15:01:55;;;;;;;0.60;0.40;;;;;;;7.93;78.23;99690.77;107578;1282;61700;-80
2022/02/04 15:04:35;;;;;;;0.60;0.40;;;;;;;7.85;78.26;99693.86;107581;1282;75151;-79
2022/02/04 15:07:06;;;;;;;0.90;0.40;;;;;;;7.78;77.96;99674.44;107614;1282;72801;-78
2022/02/04 15:09:33;;;;;;;3.60;0.80;;;;;;;7.74;78.26;99668.16;107625;1282;73424;-78
2022/02/04 15:12:00;;;;;;;2.10;0.70;;;;;;;7.72;78.69;99669.96;107611;1282;62219;-78
2022/02/04 15:14:26;;;;;;;1.00;0.50;;;;;;;7.71;78.55;99659.20;107595;1282;59263;-79
2022/02/04 15:16:52;;;;;;;1.60;0.80;;;;;;;7.67;78.31;99666.83;107486;1282;59541;-79
2022/02/04 15:19:19;;;;;;;2.10;0.80;;;;;;;7.65;78.10;99652.04;107603;1281;59167;-79
2022/02/04 15:21:48;;;;;;;1.90;0.80;;;;;;;7.64;77.95;99671.48;107449;1282;74183;-79
2022/02/04 15:24:14;;;;;;;3.20;1.00;;;;;;;7.65;78.45;99653.63;107556;1282;63265;-79
2022/02/04 15:26:41;;;;;;;1.80;0.80;;;;;;;7.63;78.14;99648.96;107496;1282;60636;-79
2022/02/04 15:29:11;;;;;;;2.30;0.90;;;;;;;7.62;78.38;99649.39;107524;1282;76042;-79
2022/02/04 15:34:08;;;;;;;1.80;0.90;;;;;;;7.61;78.24;99618.23;107540;1282;74251;-80
2022/02/04 15:36:45;;;;;;;1.50;0.90;;;;;;;7.58;77.68;99623.80;107596;1282;62383;-80
2022/02/04 15:39:15;;;;;;;1.30;0.70;;;;;;;7.59;77.66;99611.16;107546;1282;60609;-78
2022/02/04 15:41:55;;;;;;;1.40;0.70;;;;;;;7.59;76.82;99618.02;107548;1282;74970;-78
2022/02/04 15:49:55;;;;;;;1.30;0.80;;;;;;;7.58;76.73;99589.53;107600;1282;60686;-80
2022/02/04 15:57:48;;;;;;;1.40;0.70;;;;;;;7.53;76.43;99563.45;107596;1282;70339;-81
2022/02/04 16:05:42;;;;;;;1.90;0.90;;;;;;;7.48;75.97;99564.99;107516;1282;59587;-78
2022/02/04 16:08:12;;;;;;;1.30;0.60;;;;;;;7.45;75.87;99553.59;107442;1284;74983;-80
2022/02/04 16:21:34;;;;;;;0.80;0.40;;;;;;;7.39;75.17;99558.66;107574;1282;74969;-78
2022/02/04 16:24:32;;;;;;;3.20;1.10;;;;;;;7.40;75.30;99564.60;107560;1284;72608;-79
2022/02/04 16:28:37;;;;;;;0.90;0.40;;;;;;;7.39;75.23;99556.63;107574;1282;73081;-79
2022/02/04 16:29:45;;;;;;;1.20;0.60;;;;;;;7.34;76.38;99555.00;107515;1283;60304;-79
2022/02/04 16:32:13;;;;;;;1.10;0.50;;;;;;;7.30;77.12;99561.96;107508;1283;59086;-80
2022/02/04 16:34:41;;;;;;;1.50;0.70;;;;;;;7.27;77.17;99561.96;107442;1284;73938;-80
2022/02/04 16:37:17;;;;;;;2.00;0.90;;;;;;;7.26;77.43;99549.52;107627;1282;72420;-80
2022/02/04 16:39:46;;;;;;;1.50;0.70;;;;;;;7.24;76.94;99554.30;107670;1282;72986;-79
2022/02/04 16:42:15;;;;;;;1.40;0.60;;;;;;;7.22;77.29;99530.59;107666;1282;63896;-79
2022/02/04 16:44:42;;;;;;;1.20;0.70;;;;;;;7.22;77.02;99528.69;107590;1284;61698;-79
2022/02/04 16:47:14;;;;;;;2.60;1.00;;;;;;;7.22;77.04;99527.63;107535;1284;74737;-79
2022/02/04 16:49:41;;;;;;;1.80;0.90;;;;;;;7.22;76.84;99530.63;107602;1283;72444;-79
2022/02/04 16:52:08;;;;;;;1.70;0.60;;;;;;;7.21;76.46;99532.46;107502;1284;73124;-79
2022/02/04 16:54:38;;;;;;;1.40;0.90;;;;;;;7.23;76.34;99529.64;107592;1282;58511;-79
2022/02/04 16:57:05;;;;;;;1.80;0.70;;;;;;;7.24;76.43;99524.20;107649;1282;60595;-79
2022/02/04 16:59:32;;;;;;;2.10;0.80;;;;;;;7.24;76.44;99528.55;107518;1283;76176;-78
2022/02/04 17:02:00;;;;;;;2.40;1.00;;;;;;;7.24;76.52;99523.84;107528;1284;71607;-78
2022/02/04 17:04:27;;;;;;;1.60;0.60;;;;;;;7.23;76.94;99527.35;107585;1282;72959;-78
2022/02/04 17:07:09;;;;;;;1.50;0.70;;;;;;;7.20;77.21;99518.15;107551;1282;61492;-78
2022/02/04 17:09:40;;;;;;;1.80;0.70;;;;;;;7.16;77.88;99512.63;107545;1282;60684;-78
2022/02/04 17:12:09;;;;;;;1.30;0.70;;;;;;;7.13;77.54;99511.48;107482;1284;76031;-78
2022/02/04 17:14:36;;;;;;;2.00;0.90;;;;;;;7.11;77.84;99502.02;107619;1282;71450;-77
2022/02/04 17:17:07;;;;;;;1.20;0.70;;;;;;;7.08;77.74;99508.57;107627;1282;74209;-78
2022/02/04 17:19:43;;;;;;;1.10;0.70;;;;;;;7.08;77.15;99504.32;107493;1284;61533;-78
2022/02/04 17:22:12;;;;;;;2.20;0.60;;;;;;;7.07;77.56;99509.29;107218;1284;60626;-78
2022/02/04 17:24:39;;;;;;;1.50;0.60;;;;;;;7.07;78.24;99513.52;107417;1283;76037;-78
2022/02/04 17:27:06;;;;;;;1.90;0.80;;;;;;;7.04;78.85;99509.33;107584;1282;72442;-79
2022/02/04 17:29:33;;;;;;;1.80;0.70;;;;;;;7.00;80.15;99513.40;107545;1282;74127;-79
2022/02/04 17:32:02;;;;;;;2.00;0.90;;;;;;;6.91;81.14;99509.59;107547;1282;62682;-80
2022/02/04 17:34:29;;;;;;;8.40;0.60;;;;;;;6.83;82.41;99513.96;107616;1282;60618;-80
2022/02/04 17:36:57;;;;;;;1.90;0.80;;;;;;;6.73;82.48;99511.05;107532;1283;59680;-80
2022/02/04 17:39:25;;;;;;;1.50;0.50;;;;;;;6.65;82.80;99514.73;107457;1284;71323;-80
2022/02/04 17:41:56;;;;;;;2.30;0.60;;;;;;;6.59;83.50;99512.89;107437;1282;74214;-80
2022/02/04 17:44:24;;;;;;;1.70;0.70;;;;;;;6.54;84.13;99508.89;107610;1282;62690;-80
2022/02/04 17:46:52;;;;;;;3.40;1.30;;;;;;;6.48;85.50;99502.88;107496;1283;61397;-79